createdAt,value
2022-11-18T00:01:14.309Z,8.32
2022-11-18T00:03:42.047Z,8.34
2022-11-18T00:06:13.746Z,8.25
2022-11-18T00:08:40.833Z,8.33
2022-11-18T00:11:46.797Z,8.28
2022-11-18T00:14:20.720Z,8.31
2022-11-18T00:16:54.261Z,8.31
2022-11-18T00:19:25.391Z,8.31
2022-11-18T00:21:52.781Z,8.31
2022-11-18T00:24:20.880Z,8.31
2022-11-18T00:26:48.291Z,8.24
2022-11-18T00:29:16.666Z,8.22
2022-11-18T00:31:43.976Z,8.29
2022-11-18T00:34:16.812Z,8.26
2022-11-18T00:36:45.866Z,8.17
2022-11-18T00:39:15.880Z,8.24
2022-11-18T00:42:01.237Z,8.28
2022-11-18T00:44:28.123Z,8.25
2022-11-18T00:46:55.534Z,8.25
2022-11-18T00:49:22.827Z,8.24
2022-11-18T00:51:49.619Z,8.24
2022-11-18T00:54:16.642Z,8.30
2022-11-18T00:56:43.796Z,8.24
2022-11-18T00:59:10.559Z,8.27
2022-11-18T01:01:37.549Z,8.23
2022-11-18T01:04:04.708Z,8.25
2022-11-18T01:06:31.786Z,8.23
2022-11-18T01:08:58.558Z,8.26
2022-11-18T01:11:44.300Z,8.26
2022-11-18T01:14:11.168Z,8.30
2022-11-18T01:16:38.129Z,8.27
2022-11-18T01:19:04.961Z,8.25
2022-11-18T01:21:31.749Z,8.23
2022-11-18T01:23:58.558Z,8.29
2022-11-18T01:26:25.427Z,8.30
2022-11-18T01:28:57.755Z,8.22
2022-11-18T01:31:24.956Z,8.25
2022-11-18T01:33:52.394Z,8.29
2022-11-18T01:36:22.923Z,8.25
2022-11-18T01:38:50.832Z,8.21
2022-11-18T01:41:20.107Z,8.23
2022-11-18T01:43:55.547Z,8.26
2022-11-18T01:46:25.201Z,8.24
2022-11-18T01:49:14.649Z,8.22
2022-11-18T01:51:55.677Z,8.23
2022-11-18T01:54:37.707Z,8.18
2022-11-18T01:57:12.810Z,8.23
2022-11-18T01:59:42.822Z,8.16
2022-11-18T02:02:14.018Z,8.18
2022-11-18T02:04:50.441Z,8.16
2022-11-18T02:07:17.851Z,8.19
2022-11-18T02:09:44.968Z,8.22
2022-11-18T02:12:12.617Z,8.17
2022-11-18T02:14:44.336Z,8.21
2022-11-18T02:18:02.151Z,8.22
2022-11-18T02:20:33.238Z,8.18
2022-11-18T02:23:52.427Z,8.19
2022-11-18T02:26:59.299Z,8.19
2022-11-18T02:30:12.726Z,8.26
2022-11-18T02:32:57.039Z,8.23
2022-11-18T02:35:43.871Z,8.20
2022-11-18T02:38:24.963Z,8.18
2022-11-18T02:41:01.481Z,8.24
2022-11-18T02:43:41.272Z,8.18
2022-11-18T02:46:13.680Z,8.27
2022-11-18T02:48:48.903Z,8.26
2022-11-18T02:51:25.825Z,8.23
2022-11-18T02:53:57.438Z,8.27
2022-11-18T02:56:27.190Z,8.27
2022-11-18T02:58:54.015Z,8.26
2022-11-18T03:01:27.468Z,8.21
2022-11-18T03:03:54.616Z,8.26
2022-11-18T03:06:45.653Z,8.19
2022-11-18T03:09:35.614Z,8.19
2022-11-18T03:12:19.093Z,8.17
2022-11-18T03:15:19.457Z,8.16
2022-11-18T03:18:01.190Z,8.20
2022-11-18T03:20:31.152Z,8.17
2022-11-18T03:23:10.130Z,8.22
2022-11-18T03:25:56.468Z,8.21
2022-11-18T03:28:40.760Z,8.18
2022-11-18T03:31:34.126Z,8.18
2022-11-18T03:34:15.271Z,8.22
2022-11-18T03:36:51.766Z,8.22
2022-11-18T03:39:22.261Z,8.17
2022-11-18T03:41:56.377Z,8.18
2022-11-18T03:44:34.893Z,8.22
2022-11-18T03:47:10.870Z,8.19
2022-11-18T03:49:53.415Z,8.21
2022-11-18T03:52:26.632Z,8.17
2022-11-18T03:54:57.824Z,8.21
2022-11-18T03:57:45.718Z,8.14
2022-11-18T04:00:16.011Z,8.15
2022-11-18T04:02:44.183Z,8.16
2022-11-18T04:05:13.379Z,8.14
2022-11-18T04:08:00.201Z,8.15
2022-11-18T04:10:47.129Z,8.04
2022-11-18T04:13:31.650Z,8.13
2022-11-18T04:15:58.606Z,8.13
2022-11-18T04:18:25.461Z,8.14
2022-11-18T04:20:52.384Z,8.15
2022-11-18T04:23:19.472Z,8.16
2022-11-18T04:25:46.425Z,8.13
2022-11-18T04:28:13.306Z,8.18
2022-11-18T04:30:40.091Z,8.14
2022-11-18T04:33:06.907Z,8.12
2022-11-18T04:35:33.708Z,8.10
2022-11-18T04:38:00.556Z,8.13
2022-11-18T04:40:27.328Z,8.13
2022-11-18T04:42:54.118Z,8.11
2022-11-18T04:45:20.927Z,8.14
2022-11-18T04:47:48.067Z,8.14
2022-11-18T04:50:14.995Z,8.13
2022-11-18T04:52:42.043Z,8.14
2022-11-18T04:55:09.156Z,8.17
2022-11-18T04:57:35.938Z,8.12
2022-11-18T05:00:02.918Z,8.09
2022-11-18T05:02:29.789Z,8.14
2022-11-18T05:04:56.560Z,8.04
2022-11-18T05:07:23.367Z,8.14
2022-11-18T05:09:50.203Z,8.13
2022-11-18T05:12:35.648Z,8.16
2022-11-18T05:15:02.475Z,8.13
2022-11-18T05:17:29.341Z,8.11
2022-11-18T05:19:56.324Z,8.08
2022-11-18T05:22:23.125Z,8.11
2022-11-18T05:24:49.876Z,8.20
2022-11-18T05:27:16.898Z,8.18
2022-11-18T05:29:44.015Z,8.18
2022-11-18T05:32:11.226Z,8.15
2022-11-18T05:34:40.936Z,8.19
2022-11-18T05:37:08.166Z,8.20
2022-11-18T05:39:35.011Z,8.19
2022-11-18T05:42:21.148Z,8.19
2022-11-18T05:44:49.860Z,8.20
2022-11-18T05:47:19.975Z,8.14
2022-11-18T05:49:46.769Z,8.16
2022-11-18T05:52:13.611Z,8.14
2022-11-18T05:54:46.940Z,8.21
2022-11-18T05:57:13.697Z,8.21
2022-11-18T05:59:40.455Z,8.25
2022-11-18T06:02:15.971Z,8.20
2022-11-18T06:04:49.639Z,8.21
2022-11-18T06:07:29.402Z,8.23
2022-11-18T06:10:05.017Z,8.21
2022-11-18T06:12:42.197Z,8.14
2022-11-18T06:15:34.900Z,8.12
2022-11-18T06:18:09.601Z,8.19
2022-11-18T06:20:40.332Z,8.18
2022-11-18T06:23:07.231Z,8.18
2022-11-18T06:25:34.558Z,8.22
2022-11-18T06:28:02.867Z,8.23
2022-11-18T06:30:29.664Z,8.25
2022-11-18T06:32:56.517Z,8.19
2022-11-18T06:35:23.393Z,8.19
2022-11-18T06:37:50.224Z,8.25
2022-11-18T06:40:17.503Z,8.18
2022-11-18T06:43:03.007Z,8.22
2022-11-18T06:45:30.429Z,8.23
2022-11-18T06:47:58.914Z,8.25
2022-11-18T06:50:25.831Z,8.21
2022-11-18T06:52:53.324Z,8.19
2022-11-18T06:55:20.627Z,8.26
2022-11-18T06:57:47.488Z,8.26
2022-11-18T07:00:15.478Z,8.28
2022-11-18T07:02:42.246Z,8.30
2022-11-18T07:05:09.165Z,8.32
2022-11-18T07:07:40.502Z,8.30
2022-11-18T07:10:09.635Z,8.34
2022-11-18T07:12:36.423Z,8.31
2022-11-18T07:15:03.516Z,8.29
2022-11-18T07:17:31.637Z,8.32
2022-11-18T07:19:58.495Z,8.30
2022-11-18T07:22:25.235Z,8.22
2022-11-18T07:24:52.015Z,8.25
2022-11-18T07:27:18.812Z,8.28
2022-11-18T07:29:45.951Z,8.29
2022-11-18T07:32:12.774Z,8.23
2022-11-18T07:34:39.568Z,8.23
2022-11-18T07:37:06.382Z,8.27
2022-11-18T07:39:33.167Z,8.27
2022-11-18T07:41:59.949Z,8.27
2022-11-18T07:44:26.727Z,8.22
2022-11-18T07:46:53.527Z,8.25
2022-11-18T07:49:20.705Z,8.29
2022-11-18T07:51:47.678Z,8.28
2022-11-18T07:54:17.264Z,8.26
2022-11-18T07:56:44.355Z,8.24
2022-11-18T07:59:11.158Z,8.26
2022-11-18T08:01:38.364Z,8.28
2022-11-18T08:04:11.909Z,8.22
2022-11-18T08:06:39.911Z,8.28
2022-11-18T08:09:08.289Z,8.26
2022-11-18T08:11:35.949Z,8.31
2022-11-18T08:14:02.802Z,8.26
2022-11-18T08:16:29.883Z,8.27
2022-11-18T08:18:59.836Z,8.25
2022-11-18T08:21:26.647Z,8.29
2022-11-18T08:23:57.294Z,8.25
2022-11-18T08:26:25.295Z,8.27
2022-11-18T08:28:52.284Z,8.32
2022-11-18T08:31:24.485Z,8.34
2022-11-18T08:34:01.045Z,8.34
2022-11-18T08:36:31.158Z,8.35
2022-11-18T08:39:00.400Z,8.34
2022-11-18T08:41:39.949Z,8.39
2022-11-18T08:44:09.940Z,8.35
2022-11-18T08:46:36.742Z,8.40
2022-11-18T08:49:04.048Z,8.41
2022-11-18T08:51:31.026Z,8.40
2022-11-18T08:53:58.147Z,8.43
2022-11-18T08:56:26.264Z,8.49
2022-11-18T08:58:54.559Z,8.55
2022-11-18T09:01:21.714Z,8.58
2022-11-18T09:03:49.422Z,8.58
2022-11-18T09:06:22.831Z,8.56
2022-11-18T09:08:49.664Z,8.62
2022-11-18T09:11:23.766Z,8.57
2022-11-18T09:16:49.654Z,8.61
2022-11-18T09:19:45.487Z,8.73
2022-11-18T09:22:05.410Z,8.78
2022-11-18T09:24:32.936Z,8.75
2022-11-18T09:27:04.884Z,8.82
2022-11-18T09:29:32.778Z,8.80
2022-11-18T09:32:02.190Z,8.85
2022-11-18T09:34:29.584Z,8.91
2022-11-18T09:36:56.910Z,8.98
2022-11-18T09:39:25.539Z,9.06
2022-11-18T09:42:23.508Z,9.09
2022-11-18T09:45:44.281Z,9.01
2022-11-18T09:48:20.513Z,9.11
2022-11-18T09:50:50.143Z,9.13
2022-11-18T09:53:25.489Z,9.11
2022-11-18T09:55:53.938Z,9.17
2022-11-18T09:58:36.225Z,9.13
2022-11-18T10:01:09.043Z,9.08
2022-11-18T10:03:37.302Z,9.19
2022-11-18T10:06:10.961Z,9.23
2022-11-18T10:09:08.850Z,9.27
2022-11-18T10:11:58.495Z,9.32
2022-11-18T10:14:43.762Z,9.38
2022-11-18T10:17:46.956Z,9.52
2022-11-18T10:20:33.368Z,9.53
2022-11-18T10:23:17.642Z,9.61
2022-11-18T10:25:44.757Z,9.64
2022-11-18T10:28:23.105Z,9.64
2022-11-18T10:30:50.540Z,9.66
2022-11-18T10:33:21.650Z,9.62
2022-11-18T10:35:50.548Z,9.59
2022-11-18T10:38:21.265Z,9.59
2022-11-18T10:40:51.267Z,9.58
2022-11-18T10:43:55.167Z,9.56
2022-11-18T10:46:39.403Z,9.59
2022-11-18T10:49:09.236Z,9.58
2022-11-18T10:51:39.164Z,9.53
2022-11-18T10:54:21.615Z,9.51
2022-11-18T10:56:58.478Z,9.50
2022-11-18T10:59:47.342Z,9.46
2022-11-18T11:02:41.848Z,9.42
2022-11-18T11:05:23.806Z,9.45
2022-11-18T11:08:37.579Z,9.47
2022-11-18T11:11:04.912Z,9.46
2022-11-18T11:13:32.876Z,9.47
2022-11-18T11:16:04.174Z,9.51
2022-11-18T11:18:42.687Z,9.51
2022-11-18T11:21:19.177Z,9.51
2022-11-18T11:23:47.311Z,9.55
2022-11-18T11:29:37.799Z,9.56
2022-11-18T11:32:38.438Z,9.63
2022-11-18T11:35:23.622Z,9.79
2022-11-18T11:38:01.303Z,9.88
2022-11-18T11:40:55.741Z,9.93
2022-11-18T11:43:51.082Z,10.03
2022-11-18T11:46:29.952Z,10.14
2022-11-18T11:49:41.478Z,10.14
2022-11-18T11:52:23.585Z,10.31
2022-11-18T11:55:15.203Z,10.28
2022-11-18T11:58:15.398Z,10.30
2022-11-18T12:01:10.227Z,10.35
2022-11-18T12:03:51.708Z,10.30
2022-11-18T12:06:19.498Z,10.28
2022-11-18T12:09:16.419Z,10.28
2022-11-18T12:12:04.358Z,10.36
2022-11-18T12:14:51.000Z,10.37
2022-11-18T12:17:37.433Z,10.34
2022-11-18T12:20:42.692Z,10.37
2022-11-18T12:23:13.372Z,10.43
2022-11-18T12:25:55.041Z,10.36
2022-11-18T12:28:37.389Z,10.41
2022-11-18T12:31:16.503Z,10.39
2022-11-18T12:33:49.074Z,10.36
2022-11-18T12:36:46.013Z,10.24
2022-11-18T12:39:25.444Z,10.25
2022-11-18T12:42:14.389Z,10.23
2022-11-18T12:44:43.401Z,10.25
2022-11-18T12:47:12.997Z,10.26
2022-11-18T12:49:45.845Z,10.24
2022-11-18T12:52:31.043Z,10.17
2022-11-18T12:55:25.672Z,10.29
2022-11-18T12:57:52.693Z,10.32
2022-11-18T13:00:31.355Z,10.23
2022-11-18T13:03:01.638Z,10.10
2022-11-18T13:05:35.032Z,10.19
2022-11-18T13:08:15.072Z,10.20
2022-11-18T13:11:26.840Z,10.15
2022-11-18T13:14:14.816Z,10.14
2022-11-18T13:17:02.650Z,10.08
2022-11-18T13:19:29.430Z,10.17
2022-11-18T13:22:17.228Z,10.17
2022-11-18T13:24:52.743Z,10.20
2022-11-18T13:27:51.726Z,10.21
2022-11-18T13:30:18.715Z,10.26
2022-11-18T13:32:47.813Z,10.23
2022-11-18T13:35:22.262Z,10.20
2022-11-18T13:37:51.900Z,10.17
2022-11-18T13:40:22.544Z,10.18
2022-11-18T13:42:50.354Z,10.20
2022-11-18T13:45:18.159Z,10.27
2022-11-18T13:48:09.636Z,10.17
2022-11-18T13:50:43.821Z,10.23
2022-11-18T13:53:38.430Z,10.30
2022-11-18T13:56:12.776Z,10.33
2022-11-18T14:01:38.837Z,10.36
2022-11-18T14:04:15.557Z,10.50
2022-11-18T14:06:42.557Z,10.53
2022-11-18T14:09:15.939Z,10.58
2022-11-18T14:12:01.256Z,10.65
2022-11-18T14:14:37.778Z,10.62
2022-11-18T14:17:26.549Z,10.38
2022-11-18T14:20:01.401Z,10.45
2022-11-18T14:22:33.676Z,10.37
2022-11-18T14:25:14.742Z,10.33
2022-11-18T14:27:50.654Z,10.33
2022-11-18T14:30:24.555Z,10.31
2022-11-18T14:33:06.574Z,10.25
2022-11-18T14:35:35.132Z,10.22
2022-11-18T14:41:13.389Z,10.11
2022-11-18T14:43:40.897Z,10.19
2022-11-18T14:46:19.778Z,10.18
2022-11-18T14:48:46.776Z,10.11
2022-11-18T14:51:17.491Z,10.10
2022-11-18T14:53:45.136Z,10.09
2022-11-18T14:56:33.132Z,10.11
2022-11-18T14:59:00.010Z,10.10
2022-11-18T15:01:31.061Z,10.02
2022-11-18T15:03:58.256Z,10.03
2022-11-18T15:06:25.170Z,9.95
2022-11-18T15:08:53.502Z,9.83
2022-11-18T15:11:20.636Z,9.71
2022-11-18T15:13:47.907Z,9.75
2022-11-18T15:16:17.629Z,9.66
2022-11-18T15:18:47.954Z,9.61
2022-11-18T15:21:15.115Z,9.64
2022-11-18T15:23:42.576Z,9.63
2022-11-18T15:26:43.957Z,9.48
2022-11-18T15:29:23.528Z,9.48
2022-11-18T15:31:51.630Z,9.40
2022-11-18T15:34:20.891Z,9.39
2022-11-18T15:36:48.415Z,9.35
2022-11-18T15:39:15.714Z,9.33
2022-11-18T15:41:43.251Z,9.36
2022-11-18T15:44:13.400Z,9.27
2022-11-18T15:46:40.679Z,9.31
2022-11-18T15:49:13.176Z,9.31
2022-11-18T15:51:40.436Z,9.29
2022-11-18T15:54:07.218Z,9.29
2022-11-18T15:56:34.590Z,9.30
2022-11-18T15:59:04.255Z,9.26
2022-11-18T16:01:36.559Z,9.20
2022-11-18T16:04:05.897Z,9.21
2022-11-18T16:06:33.450Z,9.16
2022-11-18T16:09:00.865Z,9.17
2022-11-18T16:11:48.073Z,9.14
2022-11-18T16:14:18.374Z,9.20
2022-11-18T16:16:47.992Z,9.18
2022-11-18T16:19:18.471Z,9.16
2022-11-18T16:21:55.334Z,9.11
2022-11-18T16:24:28.798Z,9.12
2022-11-18T16:26:56.247Z,9.05
2022-11-18T16:29:24.320Z,9.04
2022-11-18T16:31:53.127Z,9.07
2022-11-18T16:34:28.297Z,9.10
2022-11-18T16:37:01.369Z,9.00
2022-11-18T16:39:29.530Z,9.04
2022-11-18T16:42:08.508Z,9.02
2022-11-18T16:44:37.021Z,8.98
2022-11-18T16:47:10.528Z,8.95
2022-11-18T16:49:41.597Z,8.95
2022-11-18T16:52:09.325Z,8.94
2022-11-18T16:54:42.933Z,8.90
2022-11-18T16:57:12.090Z,8.81
2022-11-18T16:59:38.844Z,8.83
2022-11-18T17:02:06.748Z,8.77
2022-11-18T17:04:36.383Z,8.77
2022-11-18T17:07:03.513Z,8.76
2022-11-18T17:09:30.806Z,8.73
2022-11-18T17:12:01.313Z,8.75
2022-11-18T17:14:29.655Z,8.72
2022-11-18T17:16:57.712Z,8.67
2022-11-18T17:19:25.801Z,8.63
2022-11-18T17:21:53.009Z,8.62
2022-11-18T17:24:22.658Z,8.62
2022-11-18T17:26:51.205Z,8.61
2022-11-18T17:29:18.707Z,8.59
2022-11-18T17:31:45.789Z,8.56
2022-11-18T17:34:14.761Z,8.59
2022-11-18T17:36:42.578Z,8.59
2022-11-18T17:39:11.767Z,8.58
2022-11-18T17:41:57.569Z,8.60
2022-11-18T17:44:24.946Z,8.57
2022-11-18T17:46:52.403Z,8.59
2022-11-18T17:49:21.443Z,8.60
2022-11-18T17:51:51.652Z,8.58
2022-11-18T17:54:19.168Z,8.60
2022-11-18T17:56:47.536Z,8.61
2022-11-18T17:59:16.025Z,8.58
2022-11-18T18:01:43.116Z,8.62
2022-11-18T18:04:10.885Z,8.59
2022-11-18T18:06:37.682Z,8.61
2022-11-18T18:09:04.781Z,8.59
2022-11-18T18:11:31.620Z,8.63
2022-11-18T18:14:13.541Z,8.63
2022-11-18T18:16:49.986Z,8.63
2022-11-18T18:19:22.814Z,8.58
2022-11-18T18:21:50.085Z,8.58
2022-11-18T18:24:19.832Z,8.61
2022-11-18T18:26:47.529Z,8.60
2022-11-18T18:29:14.482Z,8.55
2022-11-18T18:31:41.408Z,8.53
2022-11-18T18:34:08.819Z,8.48
2022-11-18T18:36:35.726Z,8.53
2022-11-18T18:39:02.771Z,8.52
2022-11-18T18:41:30.450Z,8.51
2022-11-18T18:43:57.437Z,8.51
2022-11-18T18:46:30.464Z,8.52
2022-11-18T18:49:10.227Z,8.44
2022-11-18T18:51:42.317Z,8.43
2022-11-18T18:54:14.854Z,8.46
2022-11-18T18:56:42.469Z,8.47
2022-11-18T18:59:10.399Z,8.43
2022-11-18T19:01:39.956Z,8.39
2022-11-18T19:04:10.449Z,8.38
2022-11-18T19:06:59.377Z,8.36
2022-11-18T19:09:26.542Z,8.32
2022-11-18T19:12:12.340Z,8.31
2022-11-18T19:14:39.300Z,8.31
2022-11-18T19:17:10.567Z,8.30
2022-11-18T19:19:59.040Z,8.31
2022-11-18T19:22:26.311Z,8.29
2022-11-18T19:24:53.933Z,8.25
2022-11-18T19:27:21.865Z,8.29
2022-11-18T19:29:49.408Z,8.25
2022-11-18T19:32:16.485Z,8.25
2022-11-18T19:34:43.330Z,8.26
2022-11-18T19:37:10.121Z,8.23
2022-11-18T19:39:38.686Z,8.27
2022-11-18T19:42:05.976Z,8.24
2022-11-18T19:44:33.120Z,8.25
2022-11-18T19:46:59.871Z,8.24
2022-11-18T19:49:26.671Z,8.22
2022-11-18T19:51:53.608Z,8.27
2022-11-18T19:54:20.903Z,8.23
2022-11-18T19:56:48.010Z,8.17
2022-11-18T19:59:14.783Z,8.21
2022-11-18T20:01:41.818Z,8.22
2022-11-18T20:04:09.283Z,8.19
2022-11-18T20:06:37.157Z,8.21
2022-11-18T20:09:08.350Z,8.17
2022-11-18T20:11:35.389Z,8.17
2022-11-18T20:14:02.458Z,8.09
2022-11-18T20:16:29.315Z,8.14
2022-11-18T20:19:06.333Z,8.09
2022-11-18T20:21:34.882Z,8.07
2022-11-18T20:24:04.822Z,8.08
2022-11-18T20:26:34.790Z,8.03
2022-11-18T20:29:02.422Z,7.96
2022-11-18T20:31:29.898Z,7.94
2022-11-18T20:33:57.243Z,7.88
2022-11-18T20:36:33.002Z,7.87
2022-11-18T20:39:07.489Z,7.85
2022-11-18T20:41:36.631Z,7.81
2022-11-18T20:44:04.264Z,7.74
2022-11-18T20:46:31.372Z,7.74
2022-11-18T20:48:58.267Z,7.73
2022-11-18T20:51:28.022Z,7.68
2022-11-18T20:53:57.772Z,7.54
2022-11-18T20:56:27.455Z,7.60
2022-11-18T20:58:56.259Z,7.69
2022-11-18T21:01:26.993Z,7.63
2022-11-18T21:04:01.762Z,7.66
2022-11-18T21:06:31.559Z,7.53
2022-11-18T21:09:01.450Z,7.56
2022-11-18T21:11:29.372Z,7.53
2022-11-18T21:14:21.614Z,7.46
2022-11-18T21:16:51.728Z,7.47
2022-11-18T21:19:19.060Z,7.46
2022-11-18T21:21:45.981Z,7.50
2022-11-18T21:24:15.903Z,7.48
2022-11-18T21:26:44.654Z,7.42
2022-11-18T21:29:13.930Z,7.35
2022-11-18T21:31:41.541Z,7.41
2022-11-18T21:34:10.607Z,7.42
2022-11-18T21:36:44.815Z,7.43
2022-11-18T21:39:14.618Z,7.43
2022-11-18T21:41:41.429Z,7.44
2022-11-18T21:44:10.956Z,7.36
2022-11-18T21:46:40.512Z,7.39
2022-11-18T21:49:08.417Z,7.35
2022-11-18T21:51:36.447Z,7.39
2022-11-18T21:54:04.302Z,7.35
2022-11-18T21:56:32.172Z,7.33
2022-11-18T21:59:01.681Z,7.33
2022-11-18T22:01:31.845Z,7.32
2022-11-18T22:04:01.314Z,7.28
2022-11-18T22:06:31.666Z,7.29
2022-11-18T22:08:58.947Z,7.30
2022-11-18T22:11:26.116Z,7.33
2022-11-18T22:13:53.710Z,7.32
2022-11-18T22:16:23.576Z,7.25
2022-11-18T22:18:58.808Z,7.30
2022-11-18T22:21:27.117Z,7.27
2022-11-18T22:23:58.126Z,7.22
2022-11-18T22:26:25.101Z,7.22
2022-11-18T22:28:57.754Z,7.18
2022-11-18T22:31:27.080Z,7.14
2022-11-18T22:33:55.709Z,7.09
2022-11-18T22:36:25.775Z,7.13
2022-11-18T22:38:53.830Z,7.12
2022-11-18T22:41:42.565Z,7.12
2022-11-18T22:44:11.037Z,7.06
2022-11-18T22:46:39.809Z,7.06
2022-11-18T22:49:08.378Z,6.98
2022-11-18T22:51:36.955Z,7.00
2022-11-18T22:54:36.574Z,6.90
2022-11-18T22:56:54.236Z,6.91
2022-11-18T22:59:21.555Z,6.77
2022-11-18T23:01:51.788Z,6.77
2022-11-18T23:04:18.868Z,6.75
2022-11-18T23:06:45.661Z,6.72
2022-11-18T23:09:12.610Z,6.70
2022-11-18T23:11:57.891Z,6.70
2022-11-18T23:14:24.735Z,6.64
2022-11-18T23:16:51.523Z,6.71
2022-11-18T23:19:19.064Z,6.69
2022-11-18T23:21:46.487Z,6.71
2022-11-18T23:24:19.335Z,6.60
2022-11-18T23:26:47.462Z,6.65
2022-11-18T23:29:16.001Z,6.60
2022-11-18T23:31:45.014Z,6.59
2022-11-18T23:34:14.498Z,6.56
2022-11-18T23:36:42.380Z,6.58
2022-11-18T23:39:09.483Z,6.56
2022-11-18T23:41:36.799Z,6.57
2022-11-18T23:44:05.017Z,6.49
2022-11-18T23:46:32.350Z,6.48
2022-11-18T23:48:59.210Z,6.51
2022-11-18T23:51:26.674Z,6.50
2022-11-18T23:53:57.581Z,6.53
2022-11-18T23:56:27.172Z,6.57
2022-11-18T23:58:55.987Z,6.57
